Time;durP1;ratioP1;P1;durP2;ratioP2;P2;SDS_P1;SDS_P2;PMS_P1;PMS_P2;Temp;Humidity;BMP_temperature;BMP_pressure;BME280_temperature;BME280_humidity;BME280_pressure;Samples;Min_cycle;Max_cycle;Signal;HPM_P1;HPM_P2
2020/12/17 00:01:15;;;;;;;7.10;5.80;;;10.40;1.00;;;;;;5013816;28;20424;-65
2020/12/17 00:03:41;;;;;;;6.33;5.10;;;10.40;1.00;;;;;;5013947;28;20777;-65
2020/12/17 00:06:11;;;;;;;5.68;5.18;;;10.40;1.00;;;;;;5013617;28;20416;-65
2020/12/17 00:08:38;;;;;;;6.10;5.28;;;10.40;1.00;;;;;;5014058;28;20409;-65
2020/12/17 00:11:04;;;;;;;5.30;4.80;;;10.50;1.00;;;;;;5013769;28;20419;-65
2020/12/17 00:13:30;;;;;;;6.82;5.20;;;10.50;1.00;;;;;;5013661;28;20774;-65
2020/12/17 00:15:56;;;;;;;7.25;5.43;;;10.50;1.00;;;;;;5013397;28;20416;-66
2020/12/17 00:18:22;;;;;;;9.18;5.82;;;10.60;1.00;;;;;;5014088;28;20405;-66
2020/12/17 00:20:48;;;;;;;6.10;4.70;;;10.60;1.00;;;;;;5014725;28;20417;-66
2020/12/17 00:23:15;;;;;;;5.20;4.70;;;10.60;1.00;;;;;;5014546;28;20417;-66
2020/12/17 00:25:41;;;;;;;7.63;5.65;;;10.60;1.00;;;;;;5013801;28;20413;-65
2020/12/17 00:28:08;;;;;;;6.07;5.30;;;10.60;1.00;;;;;;5013965;28;20491;-66
2020/12/17 00:30:34;;;;;;;5.80;5.30;;;10.60;1.00;;;;;;5013244;28;20890;-66
2020/12/17 00:33:00;;;;;;;6.40;5.07;;;10.70;1.00;;;;;;5013218;28;20421;-66
2020/12/17 00:35:26;;;;;;;7.97;5.15;;;10.80;1.00;;;;;;5013051;28;20423;-66
2020/12/17 00:37:52;;;;;;;6.07;4.53;;;10.70;1.00;;;;;;5013106;28;20416;-66
2020/12/17 00:40:19;;;;;;;7.13;4.88;;;10.80;1.00;;;;;;5012624;28;20417;-66
2020/12/17 00:42:47;;;;;;;5.18;4.68;;;10.80;1.00;;;;;;5013510;28;20451;-66
2020/12/17 00:45:14;;;;;;;5.90;5.30;;;10.70;1.00;;;;;;5012867;28;20825;-66
2020/12/17 00:47:40;;;;;;;6.43;4.43;;;10.70;1.00;;;;;;5012838;28;20424;-66
2020/12/17 00:50:07;;;;;;;4.75;4.25;;;10.70;1.00;;;;;;5012927;28;20412;-66
2020/12/17 00:52:35;;;;;;;5.38;4.85;;;10.70;1.00;;;;;;5012937;28;20424;-66
2020/12/17 00:55:01;;;;;;;5.97;4.90;;;10.70;1.00;;;;;;5012650;28;20839;-66
2020/12/17 00:57:28;;;;;;;5.90;4.90;;;10.80;1.00;;;;;;5012787;28;20447;-66
2020/12/17 00:59:54;;;;;;;6.72;5.20;;;10.70;1.00;;;;;;5012693;28;20428;-66
2020/12/17 01:02:21;;;;;;;5.20;4.70;;;10.60;1.00;;;;;;5012618;28;20408;-66
2020/12/17 01:04:47;;;;;;;6.50;4.95;;;10.60;1.00;;;;;;5012514;28;20906;-66
2020/12/17 01:07:13;;;;;;;5.57;4.43;;;10.60;1.00;;;;;;5012456;28;20425;-66
2020/12/17 01:09:40;;;;;;;9.45;5.10;;;10.60;1.00;;;;;;5012260;28;20420;-66
2020/12/17 01:12:07;;;;;;;6.60;5.30;;;10.60;1.00;;;;;;5012681;28;20412;-66
2020/12/17 01:14:34;;;;;;;6.82;4.95;;;10.50;1.00;;;;;;5012721;28;20420;-66
2020/12/17 01:17:01;;;;;;;6.50;5.15;;;10.50;1.00;;;;;;5012667;28;20416;-66
2020/12/17 01:19:28;;;;;;;7.22;4.93;;;10.40;1.00;;;;;;5012191;28;20428;-66
2020/12/17 01:21:54;;;;;;;5.40;4.90;;;10.40;1.00;;;;;;5012452;28;20412;-66
2020/12/17 01:24:20;;;;;;;6.95;5.00;;;10.40;1.00;;;;;;5012393;28;20420;-66
2020/12/17 01:26:46;;;;;;;6.03;4.80;;;10.30;1.00;;;;;;5012160;28;20478;-66
2020/12/17 01:29:12;;;;;;;6.20;4.80;;;10.30;1.00;;;;;;5012309;28;20424;-66
2020/12/17 01:31:39;;;;;;;5.78;4.90;;;10.30;1.00;;;;;;5012610;28;20424;-66
2020/12/17 01:34:05;;;;;;;4.90;4.50;;;10.40;1.00;;;;;;5012521;28;20901;-66
2020/12/17 01:36:31;;;;;;;5.28;4.50;;;10.40;1.00;;;;;;5012357;28;20416;-66
2020/12/17 01:38:57;;;;;;;6.97;4.97;;;10.40;1.00;;;;;;5012198;28;20885;-66
2020/12/17 01:41:23;;;;;;;5.22;4.78;;;10.50;1.00;;;;;;5012296;28;20439;-66
2020/12/17 01:43:50;;;;;;;6.85;4.88;;;10.50;1.00;;;;;;5011801;28;20905;-66
2020/12/17 01:46:16;;;;;;;4.72;4.22;;;10.40;1.00;;;;;;5011771;28;20427;-66
2020/12/17 01:48:44;;;;;;;5.43;4.60;;;10.50;1.00;;;;;;5011525;28;20428;-66
2020/12/17 01:51:10;;;;;;;4.40;4.00;;;10.50;1.00;;;;;;5011775;28;20440;-66
2020/12/17 01:53:38;;;;;;;5.00;4.50;;;10.60;1.00;;;;;;5011547;28;20912;-66
2020/12/17 01:56:09;;;;;;;5.13;4.18;;;10.60;1.00;;;;;;5013309;28;20471;-66
2020/12/17 01:58:41;;;;;;;4.95;4.25;;;10.60;1.00;;;;;;5011890;28;20419;-66
2020/12/17 02:01:11;;;;;;;5.97;4.40;;;10.70;1.00;;;;;;5011679;28;20419;-65
2020/12/17 02:03:38;;;;;;;5.35;4.47;;;10.80;1.00;;;;;;5011526;28;20416;-66
2020/12/17 02:06:05;;;;;;;4.60;4.20;;;10.80;1.00;;;;;;5011583;28;20427;-66
2020/12/17 02:08:37;;;;;;;4.38;3.92;;;10.80;1.00;;;;;;5011580;28;20520;-66
2020/12/17 02:11:03;;;;;;;5.40;4.80;;;10.80;1.00;;;;;;5011463;28;20759;-66
2020/12/17 02:13:33;;;;;;;5.28;4.78;;;10.80;1.00;;;;;;5011494;28;20423;-66
2020/12/17 02:16:00;;;;;;;6.07;4.53;;;10.80;1.00;;;;;;5011042;28;20417;-66
2020/12/17 02:18:26;;;;;;;5.10;4.60;;;10.70;1.00;;;;;;5011529;28;20416;-66
2020/12/17 02:20:53;;;;;;;5.53;4.60;;;10.70;1.00;;;;;;5011469;28;20483;-66
2020/12/17 02:23:21;;;;;;;4.85;4.22;;;10.80;1.00;;;;;;5011283;28;20467;-66
2020/12/17 02:25:48;;;;;;;5.93;4.50;;;10.80;1.00;;;;;;5011322;28;20416;-66
2020/12/17 02:28:14;;;;;;;5.45;4.80;;;10.80;1.00;;;;;;5011040;28;20432;-66
2020/12/17 02:30:40;;;;;;;4.97;4.05;;;10.70;1.00;;;;;;5011084;28;20479;-66
2020/12/17 02:33:07;;;;;;;5.05;4.30;;;10.70;1.00;;;;;;5011181;28;20419;-66
2020/12/17 02:35:33;;;;;;;4.60;4.10;;;10.70;1.00;;;;;;5011468;28;20420;-66
2020/12/17 02:37:59;;;;;;;4.50;4.10;;;10.70;1.00;;;;;;5011286;28;20415;-66
2020/12/17 02:40:25;;;;;;;8.80;4.40;;;10.70;1.00;;;;;;5010886;28;20417;-66
2020/12/17 02:42:52;;;;;;;4.60;4.10;;;10.60;1.00;;;;;;5011163;28;20844;-66
2020/12/17 02:45:18;;;;;;;6.82;4.30;;;10.50;1.00;;;;;;5010778;28;20416;-66
2020/12/17 02:47:44;;;;;;;4.40;4.00;;;10.50;1.00;;;;;;5011190;28;20435;-66
2020/12/17 02:50:12;;;;;;;4.75;4.25;;;10.50;1.00;;;;;;5010941;28;20922;-66
2020/12/17 02:52:38;;;;;;;5.40;4.00;;;10.50;1.00;;;;;;5011123;28;20429;-65
2020/12/17 02:55:04;;;;;;;4.28;3.88;;;10.40;1.00;;;;;;5011026;28;20409;-65
2020/12/17 02:57:30;;;;;;;4.93;4.38;;;10.50;1.00;;;;;;5013190;28;21111;-66
2020/12/17 02:59:57;;;;;;;6.20;4.25;;;10.40;1.00;;;;;;5014700;28;20420;-66
2020/12/17 03:02:23;;;;;;;4.20;3.80;;;10.30;1.00;;;;;;5014832;28;20767;-66
2020/12/17 03:04:49;;;;;;;4.00;3.60;;;10.50;1.00;;;;;;5014798;28;20416;-66
2020/12/17 03:07:15;;;;;;;4.70;4.15;;;10.50;1.00;;;;;;5014651;28;20424;-66
2020/12/17 03:09:42;;;;;;;4.85;3.80;;;10.60;1.00;;;;;;5015080;28;20412;-65
2020/12/17 03:12:08;;;;;;;4.20;3.80;;;10.60;1.00;;;;;;5014797;28;20471;-66
2020/12/17 03:14:34;;;;;;;4.53;4.13;;;10.60;1.00;;;;;;5014539;28;21182;-65
2020/12/17 03:17:01;;;;;;;4.63;4.22;;;10.50;1.00;;;;;;5015148;28;20417;-65
2020/12/17 03:19:27;;;;;;;4.55;4.05;;;10.50;1.00;;;;;;5014496;28;20424;-65
2020/12/17 03:21:53;;;;;;;4.38;3.97;;;10.40;1.00;;;;;;5014506;28;20881;-66
2020/12/17 03:24:19;;;;;;;4.88;3.97;;;10.50;1.00;;;;;;5014570;28;20895;-66
2020/12/17 03:26:45;;;;;;;4.35;3.80;;;10.50;1.00;;;;;;5014379;28;20905;-65
2020/12/17 03:29:11;;;;;;;4.80;4.40;;;10.50;1.00;;;;;;5014201;28;20889;-66
2020/12/17 03:31:37;;;;;;;6.40;4.18;;;10.60;1.00;;;;;;5014642;28;20419;-66
2020/12/17 03:34:04;;;;;;;5.57;3.92;;;10.60;1.00;;;;;;5014461;28;20897;-66
2020/12/17 03:36:30;;;;;;;4.70;3.92;;;10.60;1.00;;;;;;5014263;28;20424;-66
2020/12/17 03:38:56;;;;;;;4.18;3.65;;;10.50;1.00;;;;;;5014347;28;20773;-66
2020/12/17 03:41:23;;;;;;;5.38;4.15;;;10.50;1.00;;;;;;5014260;28;20424;-66
2020/12/17 03:43:49;;;;;;;5.55;4.40;;;10.50;1.00;;;;;;5014618;28;20416;-66
2020/12/17 03:46:15;;;;;;;4.63;4.22;;;10.60;1.00;;;;;;5014110;28;20412;-66
2020/12/17 03:48:41;;;;;;;5.28;4.60;;;10.60;1.00;;;;;;5014317;28;20432;-66
2020/12/17 03:51:08;;;;;;;6.60;4.10;;;10.60;1.00;;;;;;5014510;28;20928;-66
2020/12/17 03:53:34;;;;;;;4.77;4.30;;;10.50;1.00;;;;;;5014592;28;20412;-66
2020/12/17 03:56:00;;;;;;;5.32;4.82;;;10.50;1.00;;;;;;5014344;28;20825;-66
2020/12/17 03:58:26;;;;;;;4.50;4.10;;;10.50;1.00;;;;;;5013841;28;20412;-66
2020/12/17 04:00:52;;;;;;;4.95;4.40;;;10.60;1.00;;;;;;5013847;28;20886;-66
2020/12/17 04:03:18;;;;;;;5.50;4.60;;;10.50;1.00;;;;;;5013844;28;20432;-66
2020/12/17 04:05:44;;;;;;;5.55;4.90;;;10.50;1.00;;;;;;5013489;28;20924;-66
2020/12/17 04:08:12;;;;;;;5.10;4.50;;;10.50;1.00;;;;;;5013310;28;20475;-66
2020/12/17 04:10:38;;;;;;;5.40;4.90;;;10.50;1.00;;;;;;5013252;28;20417;-66
2020/12/17 04:13:04;;;;;;;5.13;4.13;;;10.50;1.00;;;;;;5013885;28;20417;-66
2020/12/17 04:15:30;;;;;;;5.10;4.40;;;10.50;1.00;;;;;;5013411;28;20421;-65
2020/12/17 04:17:56;;;;;;;4.88;4.38;;;10.40;1.00;;;;;;5013515;28;20417;-66
2020/12/17 04:20:22;;;;;;;5.07;4.57;;;10.40;1.00;;;;;;5013743;28;20413;-66
2020/12/17 04:22:48;;;;;;;5.28;4.78;;;10.40;1.00;;;;;;5013422;28;20416;-66
2020/12/17 04:25:15;;;;;;;5.40;4.90;;;10.40;1.00;;;;;;5013357;28;20423;-66
2020/12/17 04:27:41;;;;;;;5.85;4.40;;;10.40;1.00;;;;;;5013310;28;20424;-66
2020/12/17 04:30:07;;;;;;;5.40;4.90;;;10.50;1.00;;;;;;5013345;28;20421;-66
2020/12/17 04:32:33;;;;;;;6.18;4.45;;;10.50;1.00;;;;;;5012903;28;20882;-66
2020/12/17 04:35:00;;;;;;;5.67;4.97;;;10.50;1.00;;;;;;5013181;28;20416;-66
2020/12/17 04:37:26;;;;;;;5.20;4.45;;;10.50;1.00;;;;;;5013104;28;20412;-66
2020/12/17 04:39:52;;;;;;;6.40;4.60;;;10.40;1.00;;;;;;5012823;28;20478;-66
2020/12/17 04:42:20;;;;;;;5.70;4.57;;;10.30;1.00;;;;;;5013056;28;20423;-66
2020/12/17 04:44:47;;;;;;;5.65;4.80;;;10.40;1.00;;;;;;5013079;28;20417;-65
2020/12/17 04:47:19;;;;;;;5.28;4.68;;;10.40;1.00;;;;;;5012916;28;20432;-66
2020/12/17 04:49:49;;;;;;;5.32;4.82;;;10.50;1.00;;;;;;5012529;28;20420;-66
2020/12/17 04:52:15;;;;;;;5.10;4.50;;;10.50;1.00;;;;;;5012739;28;20805;-66
2020/12/17 04:54:41;;;;;;;4.95;4.45;;;10.40;1.00;;;;;;5012643;28;20738;-66
2020/12/17 04:57:09;;;;;;;4.78;4.38;;;10.40;1.00;;;;;;5012955;28;20439;-66
2020/12/17 04:59:44;;;;;;;6.25;4.60;;;10.40;1.00;;;;;;5013879;28;20416;-66
2020/12/17 05:02:11;;;;;;;5.50;4.50;;;10.40;1.00;;;;;;5012694;28;20413;-66
2020/12/17 05:04:39;;;;;;;5.00;4.50;;;10.40;1.00;;;;;;5012491;28;20471;-66
2020/12/17 05:07:07;;;;;;;6.10;4.95;;;10.50;1.00;;;;;;5012245;28;20464;-66
2020/12/17 05:09:34;;;;;;;5.03;4.53;;;10.50;1.00;;;;;;5012858;28;20425;-66
2020/12/17 05:12:00;;;;;;;4.50;4.10;;;10.50;1.00;;;;;;5012526;28;20416;-66
2020/12/17 05:14:27;;;;;;;5.03;4.53;;;10.50;1.00;;;;;;5012436;28;20425;-66
2020/12/17 05:16:54;;;;;;;6.50;4.90;;;10.40;1.00;;;;;;5010258;28;20467;-66
2020/12/17 05:19:21;;;;;;;5.25;4.75;;;10.50;1.00;;;;;;5011337;28;20412;-66
2020/12/17 05:21:47;;;;;;;5.43;4.75;;;10.50;1.00;;;;;;5012587;28;20424;-66
2020/12/17 05:24:13;;;;;;;6.47;5.30;;;10.50;1.00;;;;;;5012043;28;20892;-66
2020/12/17 05:26:40;;;;;;;5.22;4.72;;;10.50;1.00;;;;;;5011998;28;20420;-64
2020/12/17 05:29:06;;;;;;;5.25;4.60;;;10.50;1.00;;;;;;5011772;28;20429;-64
2020/12/17 05:31:33;;;;;;;4.60;4.20;;;10.60;1.00;;;;;;5012131;28;20419;-65
2020/12/17 05:34:03;;;;;;;5.10;4.60;;;10.60;1.00;;;;;;5011632;28;20412;-65
2020/12/17 05:36:30;;;;;;;6.03;4.75;;;10.70;1.00;;;;;;5012221;28;20789;-65
2020/12/17 05:38:56;;;;;;;5.88;4.80;;;10.70;1.00;;;;;;5012314;28;20417;-65
2020/12/17 05:41:23;;;;;;;5.40;4.90;;;10.70;1.00;;;;;;5012227;28;20849;-65
2020/12/17 05:43:49;;;;;;;6.32;4.82;;;10.50;1.00;;;;;;5012465;28;20451;-64
2020/12/17 05:46:35;;;;;;;5.97;4.70;;;10.40;1.00;;;;;;5012027;28;20515;-65
2020/12/17 05:49:09;;;;;;;6.20;5.55;;;10.40;1.00;;;;;;5012004;28;20429;-64
2020/12/17 05:51:35;;;;;;;6.20;5.43;;;10.50;1.00;;;;;;5011737;28;20781;-65
2020/12/17 05:54:02;;;;;;;5.78;4.65;;;10.50;1.00;;;;;;5011928;28;20427;-64
2020/12/17 05:56:29;;;;;;;5.50;5.00;;;10.60;1.00;;;;;;5011639;28;20421;-64
2020/12/17 05:59:01;;;;;;;5.22;4.40;;;10.60;1.00;;;;;;5012433;28;20837;-64
2020/12/17 06:01:28;;;;;;;5.05;4.55;;;10.60;1.00;;;;;;5013260;28;20416;-65
2020/12/17 06:03:54;;;;;;;4.82;4.30;;;10.60;1.00;;;;;;5011510;28;20467;-65
2020/12/17 06:06:21;;;;;;;6.15;4.80;;;10.60;1.00;;;;;;5011598;28;20416;-64
2020/12/17 06:08:51;;;;;;;6.70;5.40;;;10.60;1.00;;;;;;5011335;28;20517;-64
2020/12/17 06:11:21;;;;;;;6.15;5.28;;;10.50;1.00;;;;;;5011379;28;20904;-64
2020/12/17 06:13:54;;;;;;;4.78;4.15;;;10.50;1.00;;;;;;5010750;28;21045;-64
2020/12/17 06:16:22;;;;;;;5.88;5.28;;;10.50;1.00;;;;;;5011405;28;20416;-64
2020/12/17 06:18:55;;;;;;;5.70;5.20;;;10.50;1.00;;;;;;5011253;28;20412;-65
2020/12/17 06:21:23;;;;;;;5.90;5.20;;;10.40;1.00;;;;;;5011255;28;20909;-64
2020/12/17 06:23:54;;;;;;;5.60;5.10;;;10.40;1.00;;;;;;5011427;28;20435;-65
2020/12/17 06:26:22;;;;;;;6.77;5.40;;;10.40;1.00;;;;;;5011237;28;20417;-68
2020/12/17 06:28:50;;;;;;;7.82;5.78;;;10.40;1.00;;;;;;5011278;28;20800;-65
2020/12/17 06:31:17;;;;;;;5.70;5.10;;;10.30;1.00;;;;;;5010997;28;20817;-64
2020/12/17 06:33:44;;;;;;;6.80;5.80;;;10.30;1.00;;;;;;5011340;28;20416;-65
2020/12/17 06:36:21;;;;;;;6.97;5.75;;;10.30;1.00;;;;;;5008701;28;20417;-64
2020/12/17 06:38:49;;;;;;;6.05;5.45;;;10.30;1.00;;;;;;5010940;28;20755;-65
2020/12/17 06:41:16;;;;;;;6.63;5.55;;;10.30;1.00;;;;;;5011306;28;20416;-64
2020/12/17 06:43:42;;;;;;;6.60;5.50;;;10.30;1.00;;;;;;5011048;28;20429;-65
2020/12/17 06:46:34;;;;;;;7.18;6.10;;;10.30;1.00;;;;;;5011112;28;20424;-63
2020/12/17 06:49:02;;;;;;;6.63;6.03;;;10.20;1.00;;;;;;5011465;28;20833;-63
2020/12/17 06:51:33;;;;;;;6.60;5.90;;;10.30;1.00;;;;;;5011128;28;20412;-64
2020/12/17 06:54:00;;;;;;;6.40;5.80;;;10.20;1.00;;;;;;5011777;28;20843;-64
2020/12/17 06:56:26;;;;;;;6.97;6.28;;;10.10;1.00;;;;;;5010673;28;20437;-64
2020/12/17 06:59:14;;;;;;;6.70;6.10;;;10.10;1.00;;;;;;5011067;28;20466;-65
2020/12/17 07:01:41;;;;;;;8.90;6.63;;;10.10;1.00;;;;;;5011256;28;20416;-64
2020/12/17 07:04:07;;;;;;;7.10;6.40;;;10.20;1.00;;;;;;5011341;28;20416;-64
2020/12/17 07:06:34;;;;;;;7.68;6.45;;;10.10;1.00;;;;;;5011220;28;20416;-64
2020/12/17 07:09:01;;;;;;;8.02;6.55;;;10.10;1.00;;;;;;5010750;28;20429;-64
2020/12/17 07:11:37;;;;;;;9.43;7.07;;;10.00;1.00;;;;;;5010963;28;20443;-64
2020/12/17 07:14:05;;;;;;;9.20;7.15;;;10.00;19.00;;;;;;5015626;28;20774;-67
2020/12/17 07:16:32;;;;;;;9.70;7.43;;;10.00;58.80;;;;;;5010925;28;20417;-65
2020/12/17 07:19:26;;;;;;;10.52;8.23;;;9.90;77.70;;;;;;5011270;28;20424;-65
2020/12/17 07:21:55;;;;;;;9.73;8.45;;;9.80;99.90;;;;;;5011255;28;20459;-65
2020/12/17 07:24:24;;;;;;;11.25;8.43;;;9.80;99.90;;;;;;5010926;28;20841;-64
2020/12/17 07:26:51;;;;;;;9.05;8.15;;;9.70;99.90;;;;;;5010769;28;20412;-64
2020/12/17 07:29:18;;;;;;;9.48;8.57;;;9.60;99.90;;;;;;5010831;28;20432;-63
2020/12/17 07:31:44;;;;;;;12.50;9.15;;;9.60;99.90;;;;;;5010945;28;20889;-63
2020/12/17 07:34:15;;;;;;;9.80;8.63;;;9.60;99.90;;;;;;5010703;28;20417;-64
2020/12/17 07:36:45;;;;;;;10.43;8.90;;;9.60;99.90;;;;;;5010579;28;20405;-63
2020/12/17 07:39:12;;;;;;;10.30;9.07;;;9.50;99.90;;;;;;5010473;28;20420;-64
2020/12/17 07:41:39;;;;;;;11.52;9.77;;;9.40;1.00;;;;;;5011193;28;20429;-64
2020/12/17 07:44:05;;;;;;;10.98;9.20;;;9.50;1.00;;;;;;5014594;28;20416;-64
2020/12/17 07:46:34;;;;;;;10.55;9.10;;;9.50;1.00;;;;;;5015006;28;20777;-64
2020/12/17 07:49:02;;;;;;;11.10;9.90;;;9.50;2.20;;;;;;5013782;28;20428;-64
2020/12/17 07:51:34;;;;;;;10.25;8.95;;;9.50;6.60;;;;;;5014021;28;20481;-63
2020/12/17 07:54:05;;;;;;;10.68;9.55;;;9.50;29.50;;;;;;5013926;28;20424;-63
2020/12/17 07:56:31;;;;;;;13.02;10.25;;;9.50;88.70;;;;;;5013763;28;20532;-64
2020/12/17 07:59:04;;;;;;;12.20;9.65;;;9.40;99.90;;;;;;5014258;28;20885;-64
2020/12/17 08:01:30;;;;;;;10.00;8.93;;;9.40;99.90;;;;;;5014255;28;20763;-63
2020/12/17 08:03:56;;;;;;;11.50;10.30;;;9.40;99.90;;;;;;5013789;28;20412;-63
2020/12/17 08:06:24;;;;;;;11.10;9.13;;;9.40;99.90;;;;;;5014334;28;20425;-64
2020/12/17 08:08:53;;;;;;;10.57;9.57;;;9.40;99.90;;;;;;5014994;28;20436;-66
2020/12/17 08:11:19;;;;;;;9.75;8.75;;;9.50;99.90;;;;;;5014297;28;20443;-64
2020/12/17 08:13:46;;;;;;;9.23;8.43;;;9.50;99.90;;;;;;5013811;28;20424;-64
2020/12/17 08:16:13;;;;;;;9.68;8.70;;;9.50;99.90;;;;;;5012988;28;20420;-65
2020/12/17 08:18:39;;;;;;;11.00;9.07;;;9.50;99.90;;;;;;5013625;28;20475;-64
2020/12/17 08:21:06;;;;;;;11.30;9.43;;;9.40;99.90;;;;;;5013464;28;20417;-63
2020/12/17 08:23:34;;;;;;;10.07;8.98;;;9.40;99.90;;;;;;5013855;28;20447;-64
2020/12/17 08:26:01;;;;;;;9.18;8.15;;;9.40;99.90;;;;;;5013327;28;20416;-64
2020/12/17 08:28:33;;;;;;;8.63;7.72;;;9.40;99.90;;;;;;5013672;28;21032;-64
2020/12/17 08:31:07;;;;;;;10.45;8.55;;;9.30;99.90;;;;;;5013037;28;20421;-64
2020/12/17 08:33:36;;;;;;;9.27;7.93;;;9.30;1.00;;;;;;5013656;28;20454;-64
2020/12/17 08:36:06;;;;;;;9.00;7.88;;;9.20;1.00;;;;;;5013271;28;20424;-63
2020/12/17 08:38:33;;;;;;;8.60;7.57;;;9.30;1.00;;;;;;5013961;28;20786;-63
2020/12/17 08:41:02;;;;;;;8.75;7.78;;;9.30;1.00;;;;;;5013322;28;20413;-63
2020/12/17 08:43:33;;;;;;;7.90;7.10;;;9.30;1.00;;;;;;5013455;28;20433;-64
2020/12/17 08:46:02;;;;;;;6.70;6.10;;;9.30;1.00;;;;;;5012642;28;22545;-63
2020/12/17 08:48:31;;;;;;;7.57;6.38;;;9.30;1.00;;;;;;5014497;28;20443;-63
2020/12/17 08:50:59;;;;;;;6.97;5.88;;;9.30;1.00;;;;;;5015038;28;20488;-64
2020/12/17 08:53:27;;;;;;;6.20;5.57;;;9.30;99.90;;;;;;5013034;28;20420;-65
2020/12/17 08:56:05;;;;;;;6.28;5.68;;;9.30;99.90;;;;;;5011892;28;20504;-64
2020/12/17 08:58:42;;;;;;;7.55;5.10;;;9.30;99.90;;;;;;5013789;28;20417;-65
2020/12/17 09:01:14;;;;;;;5.25;4.30;;;9.30;99.90;;;;;;5013441;28;20420;-65
2020/12/17 09:03:44;;;;;;;6.35;5.40;;;9.30;99.90;;;;;;5013056;28;20476;-64
2020/12/17 09:06:11;;;;;;;5.90;5.30;;;9.30;99.90;;;;;;5012329;28;20444;-64
2020/12/17 09:08:37;;;;;;;4.73;4.23;;;9.30;99.90;;;;;;5012766;28;20439;-63
2020/12/17 09:11:03;;;;;;;5.70;5.07;;;9.20;99.90;;;;;;5012798;28;20825;-64
2020/12/17 09:13:29;;;;;;;5.15;4.65;;;9.20;99.90;;;;;;5012839;28;20463;-64
2020/12/17 09:16:00;;;;;;;5.85;5.10;;;9.30;99.90;;;;;;5012279;28;20467;-64
2020/12/17 09:18:27;;;;;;;5.68;4.63;;;9.30;99.90;;;;;;5011830;28;20891;-64
2020/12/17 09:21:11;;;;;;;5.80;5.20;;;9.40;99.90;;;;;;5012790;28;20423;-63
2020/12/17 09:23:38;;;;;;;7.07;4.50;;;9.40;99.90;;;;;;5012583;28;20425;-64
2020/12/17 09:26:12;;;;;;;5.57;5.07;;;9.40;99.90;;;;;;5012430;28;20468;-64
2020/12/17 09:28:38;;;;;;;7.57;5.60;;;9.50;99.90;;;;;;5012145;28;20805;-64
2020/12/17 09:31:19;;;;;;;6.10;5.50;;;9.50;99.90;;;;;;5013027;28;21062;-64
2020/12/17 09:33:45;;;;;;;7.07;6.38;;;9.50;99.90;;;;;;5012439;28;20424;-63
2020/12/17 09:36:14;;;;;;;8.00;6.20;;;9.70;99.90;;;;;;5012137;28;20801;-64
2020/12/17 09:38:41;;;;;;;6.20;5.60;;;9.70;99.90;;;;;;5012571;28;20439;-65
2020/12/17 09:41:07;;;;;;;5.60;5.10;;;9.80;99.90;;;;;;5012527;28;20412;-64
2020/12/17 09:43:33;;;;;;;6.60;5.00;;;9.90;99.90;;;;;;5014002;28;20777;-63
2020/12/17 09:45:59;;;;;;;4.75;4.30;;;9.90;22.90;;;;;;5011907;28;20777;-65
2020/12/17 09:48:27;;;;;;;5.22;4.63;;;9.90;1.00;;;;;;5012608;28;20435;-65
2020/12/17 09:50:54;;;;;;;4.68;4.18;;;10.00;1.00;;;;;;5012504;28;20413;-66
2020/12/17 09:53:22;;;;;;;4.65;4.18;;;10.00;1.00;;;;;;5012068;28;20416;-66
2020/12/17 09:55:48;;;;;;;3.97;3.60;;;10.10;1.00;;;;;;5012149;28;20425;-67
2020/12/17 09:58:14;;;;;;;4.90;3.83;;;10.30;1.00;;;;;;5012606;28;20423;-69
2020/12/17 10:00:40;;;;;;;4.03;3.60;;;10.40;99.90;;;;;;5012015;28;20476;-65
2020/12/17 10:03:06;;;;;;;4.90;3.80;;;10.40;99.90;;;;;;5017189;28;20428;-64
2020/12/17 10:05:32;;;;;;;5.95;4.55;;;10.50;99.90;;;;;;5011724;28;20432;-64
2020/12/17 10:07:58;;;;;;;4.90;3.80;;;10.60;99.90;;;;;;5013254;28;20425;-65
2020/12/17 10:10:26;;;;;;;3.45;3.15;;;10.60;99.90;;;;;;5012033;28;20518;-65
2020/12/17 10:12:52;;;;;;;4.97;3.58;;;10.60;99.90;;;;;;5011726;28;20433;-64
2020/12/17 10:15:18;;;;;;;3.38;3.08;;;10.60;99.90;;;;;;5011297;28;20421;-67
2020/12/17 10:17:44;;;;;;;4.28;3.60;;;10.50;99.90;;;;;;5011972;28;20415;-67
2020/12/17 10:20:10;;;;;;;4.13;3.17;;;10.40;99.90;;;;;;5012095;28;20421;-67
2020/12/17 10:22:37;;;;;;;3.95;3.50;;;10.40;99.90;;;;;;5011991;28;20417;-68
2020/12/17 10:25:03;;;;;;;3.92;3.00;;;10.50;99.90;;;;;;5011886;28;20420;-66
2020/12/17 10:27:30;;;;;;;3.90;2.50;;;10.60;99.90;;;;;;5011673;28;20826;-66
2020/12/17 10:29:56;;;;;;;3.60;2.40;;;10.70;44.40;;;;;;5011172;28;20479;-67
2020/12/17 10:32:23;;;;;;;2.90;2.45;;;10.60;1.00;;;;;;5011905;28;20474;-67
2020/12/17 10:34:49;;;;;;;3.70;2.70;;;10.60;1.00;;;;;;5011786;28;20416;-70
2020/12/17 10:37:15;;;;;;;3.15;2.30;;;10.60;1.00;;;;;;5011823;28;20420;-65
2020/12/17 10:39:42;;;;;;;3.53;2.15;;;10.50;1.00;;;;;;5011607;28;20793;-65
2020/12/17 10:42:09;;;;;;;2.57;1.90;;;10.40;1.00;;;;;;5011194;28;20424;-65
2020/12/17 10:44:37;;;;;;;2.22;2.05;;;10.30;1.00;;;;;;5011654;28;20421;-65
2020/12/17 10:47:03;;;;;;;4.93;2.40;;;10.20;1.00;;;;;;5011382;28;20852;-65
2020/12/17 10:49:29;;;;;;;3.35;2.03;;;10.10;1.00;;;;;;5011356;28;20440;-66
2020/12/17 10:51:55;;;;;;;5.03;2.85;;;10.20;1.00;;;;;;5011743;28;20420;-66
2020/12/17 10:54:21;;;;;;;2.30;1.90;;;10.10;1.00;;;;;;5011331;28;20421;-65
2020/12/17 10:56:47;;;;;;;3.40;2.03;;;10.20;1.00;;;;;;5011053;28;20443;-67
2020/12/17 10:59:14;;;;;;;3.85;2.30;;;10.10;1.00;;;;;;5010904;28;20885;-67
2020/12/17 11:01:40;;;;;;;2.88;2.20;;;10.10;1.00;;;;;;5011586;28;20420;-66
2020/12/17 11:04:07;;;;;;;2.30;2.10;;;10.00;1.00;;;;;;5011345;28;20420;-66
2020/12/17 11:06:33;;;;;;;2.17;1.98;;;10.00;1.00;;;;;;5011649;28;20413;-66
2020/12/17 11:08:59;;;;;;;4.00;2.50;;;10.10;1.00;;;;;;5013283;28;20432;-66
2020/12/17 11:11:25;;;;;;;2.40;2.00;;;10.10;1.00;;;;;;5013038;28;20424;-65
2020/12/17 11:13:53;;;;;;;3.75;2.20;;;10.10;1.00;;;;;;5011534;28;20433;-66
2020/12/17 11:16:19;;;;;;;3.70;2.60;;;10.10;1.00;;;;;;5011026;28;21007;-65
2020/12/17 11:18:47;;;;;;;3.03;2.05;;;10.10;1.00;;;;;;5014716;28;20423;-66
2020/12/17 11:21:21;;;;;;;2.30;1.88;;;10.10;1.00;;;;;;5017727;28;20888;-62
2020/12/17 11:23:47;;;;;;;3.10;2.10;;;10.10;1.00;;;;;;5018497;28;20519;-65
2020/12/17 11:26:14;;;;;;;2.75;1.90;;;10.20;1.00;;;;;;5017154;28;20426;-66
2020/12/17 11:28:40;;;;;;;2.90;2.20;;;10.20;1.00;;;;;;5016232;28;20459;-66
2020/12/17 11:31:06;;;;;;;2.00;1.80;;;10.20;1.00;;;;;;5017987;28;20436;-65
2020/12/17 11:33:33;;;;;;;3.83;1.88;;;10.20;1.00;;;;;;5015975;28;20919;-63
2020/12/17 11:36:00;;;;;;;3.92;2.70;;;10.30;1.00;;;;;;5014851;28;20971;-63
2020/12/17 11:38:26;;;;;;;2.60;2.40;;;10.50;1.00;;;;;;5014819;28;20956;-63
2020/12/17 11:40:52;;;;;;;3.30;2.50;;;10.60;1.00;;;;;;5014259;28;20416;-64
2020/12/17 11:43:19;;;;;;;4.00;2.10;;;10.50;1.00;;;;;;5015026;28;20885;-65
2020/12/17 11:45:45;;;;;;;3.42;2.10;;;10.50;1.00;;;;;;5014751;28;20416;-65
2020/12/17 11:48:11;;;;;;;5.05;2.50;;;10.20;1.00;;;;;;5014804;28;20428;-65
2020/12/17 11:50:37;;;;;;;2.53;1.83;;;10.30;1.00;;;;;;5014751;28;20420;-65
2020/12/17 11:53:04;;;;;;;4.30;2.63;;;10.40;1.00;;;;;;5015361;28;20416;-65
2020/12/17 11:55:31;;;;;;;5.40;3.75;;;10.60;1.00;;;;;;5016265;28;20868;-65
2020/12/17 11:57:57;;;;;;;3.72;3.20;;;10.80;1.00;;;;;;5015212;28;20420;-66
2020/12/17 12:00:23;;;;;;;3.72;1.80;;;11.00;1.00;;;;;;5014645;28;20412;-65
2020/12/17 12:02:49;;;;;;;3.20;1.80;;;11.00;1.00;;;;;;5014917;28;20427;-65
2020/12/17 12:05:17;;;;;;;4.00;2.00;;;10.90;1.00;;;;;;5014703;28;20421;-64
2020/12/17 12:07:43;;;;;;;2.22;1.85;;;10.80;1.00;;;;;;5014289;28;20429;-63
2020/12/17 12:10:10;;;;;;;2.10;1.80;;;10.60;1.00;;;;;;5014836;28;20424;-64
2020/12/17 12:12:36;;;;;;;2.55;1.83;;;10.40;1.00;;;;;;5014404;28;20444;-64
2020/12/17 12:15:03;;;;;;;2.00;1.48;;;10.40;1.00;;;;;;5014388;28;20813;-64
2020/12/17 12:17:29;;;;;;;3.10;2.10;;;10.30;1.00;;;;;;5014984;28;20429;-65
2020/12/17 12:19:55;;;;;;;3.60;2.20;;;10.30;1.00;;;;;;5013952;28;20898;-65
2020/12/17 12:22:21;;;;;;;2.30;1.80;;;10.40;1.00;;;;;;5015389;28;20421;-63
2020/12/17 12:24:47;;;;;;;2.28;1.80;;;10.40;1.00;;;;;;5019094;28;20419;-64
2020/12/17 12:27:14;;;;;;;3.15;1.65;;;10.40;1.00;;;;;;5014645;28;20444;-64
2020/12/17 12:29:40;;;;;;;1.60;1.50;;;10.40;1.00;;;;;;5014378;28;20503;-63
2020/12/17 12:32:06;;;;;;;2.95;1.83;;;10.50;1.00;;;;;;5014314;28;20416;-64
2020/12/17 12:34:32;;;;;;;3.10;1.80;;;10.50;1.00;;;;;;5014408;28;20789;-65
2020/12/17 12:36:58;;;;;;;2.25;1.48;;;10.50;1.00;;;;;;5014139;28;20409;-63
2020/12/17 12:39:25;;;;;;;3.17;1.90;;;10.50;1.00;;;;;;5014537;28;20420;-63
2020/12/17 12:41:52;;;;;;;2.88;1.92;;;10.60;1.00;;;;;;5014036;28;20471;-63
2020/12/17 12:44:19;;;;;;;3.80;2.25;;;10.70;1.00;;;;;;5018643;28;20413;-64
2020/12/17 12:46:48;;;;;;;2.20;1.85;;;10.70;1.00;;;;;;5016007;28;20416;-65
2020/12/17 12:49:14;;;;;;;2.40;2.00;;;10.60;1.00;;;;;;5014167;28;20429;-63
2020/12/17 12:51:40;;;;;;;5.38;2.58;;;10.50;1.00;;;;;;5014242;28;20425;-64
2020/12/17 12:54:06;;;;;;;4.22;2.00;;;10.50;1.00;;;;;;5013718;28;20409;-64
2020/12/17 12:56:32;;;;;;;2.95;2.40;;;10.40;1.00;;;;;;5014009;28;20471;-64